sensor_id;sensor_type;location;lat;lon;timestamp;temperature;humidity
11091;DHT22;5599;52.210;21.046;2023-07-16T00:01:22;23.30;1.00
11091;DHT22;5599;52.210;21.046;2023-07-16T00:03:53;23.30;1.00
11091;DHT22;5599;52.210;21.046;2023-07-16T00:06:22;23.30;1.00
11091;DHT22;5599;52.210;21.046;2023-07-16T00:08:52;23.30;1.00
11091;DHT22;5599;52.210;21.046;2023-07-16T00:11:21;23.30;1.00
11091;DHT22;5599;52.210;21.046;2023-07-16T00:13:50;23.20;1.20
11091;DHT22;5599;52.210;21.046;2023-07-16T00:16:19;23.10;99.90
11091;DHT22;5599;52.210;21.046;2023-07-16T00:18:48;23.00;99.90
11091;DHT22;5599;52.210;21.046;2023-07-16T00:21:19;22.90;99.90
11091;DHT22;5599;52.210;21.046;2023-07-16T00:23:48;23.00;99.90
11091;DHT22;5599;52.210;21.046;2023-07-16T00:26:17;23.00;99.90
11091;DHT22;5599;52.210;21.046;2023-07-16T00:28:47;22.90;99.90
11091;DHT22;5599;52.210;21.046;2023-07-16T00:31:16;22.90;1.00
11091;DHT22;5599;52.210;21.046;2023-07-16T00:33:45;22.80;1.00
11091;DHT22;5599;52.210;21.046;2023-07-16T00:36:14;22.70;14.90
11091;DHT22;5599;52.210;21.046;2023-07-16T00:38:46;22.70;1.00
11091;DHT22;5599;52.210;21.046;2023-07-16T00:41:15;22.70;41.80
11091;DHT22;5599;52.210;21.046;2023-07-16T00:43:44;22.70;99.90
11091;DHT22;5599;52.210;21.046;2023-07-16T00:46:13;22.70;99.90
11091;DHT22;5599;52.210;21.046;2023-07-16T00:48:43;22.70;99.90
11091;DHT22;5599;52.210;21.046;2023-07-16T00:51:12;22.60;99.90
11091;DHT22;5599;52.210;21.046;2023-07-16T00:53:44;22.60;99.90
11091;DHT22;5599;52.210;21.046;2023-07-16T00:56:16;22.70;99.90
11091;DHT22;5599;52.210;21.046;2023-07-16T00:58:45;22.70;99.90
11091;DHT22;5599;52.210;21.046;2023-07-16T01:01:15;22.70;99.90
11091;DHT22;5599;52.210;21.046;2023-07-16T01:03:45;22.70;99.90
11091;DHT22;5599;52.210;21.046;2023-07-16T01:06:16;22.70;99.90
11091;DHT22;5599;52.210;21.046;2023-07-16T01:08:54;22.70;99.90
11091;DHT22;5599;52.210;21.046;2023-07-16T01:11:27;22.60;99.90
11091;DHT22;5599;52.210;21.046;2023-07-16T01:13:57;22.60;1.00
11091;DHT22;5599;52.210;21.046;2023-07-16T01:16:28;22.50;1.00
11091;DHT22;5599;52.210;21.046;2023-07-16T01:18:58;22.50;1.00
11091;DHT22;5599;52.210;21.046;2023-07-16T01:21:35;22.40;99.90
11091;DHT22;5599;52.210;21.046;2023-07-16T01:24:32;22.40;99.90
11091;DHT22;5599;52.210;21.046;2023-07-16T01:27:28;22.30;99.90
11091;DHT22;5599;52.210;21.046;2023-07-16T01:30:02;22.20;1.00
11091;DHT22;5599;52.210;21.046;2023-07-16T01:32:32;22.10;99.90
11091;DHT22;5599;52.210;21.046;2023-07-16T01:35:03;22.00;99.90
11091;DHT22;5599;52.210;21.046;2023-07-16T01:37:33;22.00;99.90
11091;DHT22;5599;52.210;21.046;2023-07-16T01:40:02;21.90;1.00
11091;DHT22;5599;52.210;21.046;2023-07-16T01:42:32;22.00;99.90
11091;DHT22;5599;52.210;21.046;2023-07-16T01:45:05;21.90;99.90
11091;DHT22;5599;52.210;21.046;2023-07-16T01:47:39;21.80;1.00
11091;DHT22;5599;52.210;21.046;2023-07-16T01:50:13;21.80;1.00
11091;DHT22;5599;52.210;21.046;2023-07-16T01:52:42;21.90;1.00
11091;DHT22;5599;52.210;21.046;2023-07-16T01:55:12;21.90;1.00
11091;DHT22;5599;52.210;21.046;2023-07-16T01:57:41;21.90;1.00
11091;DHT22;5599;52.210;21.046;2023-07-16T02:00:12;21.80;1.00
11091;DHT22;5599;52.210;21.046;2023-07-16T02:02:50;21.90;1.00
11091;DHT22;5599;52.210;21.046;2023-07-16T02:05:20;22.00;99.90
11091;DHT22;5599;52.210;21.046;2023-07-16T02:07:49;22.00;99.90
11091;DHT22;5599;52.210;21.046;2023-07-16T02:10:18;21.90;99.90
11091;DHT22;5599;52.210;21.046;2023-07-16T02:12:48;21.90;1.00
11091;DHT22;5599;52.210;21.046;2023-07-16T02:15:19;21.90;99.90
11091;DHT22;5599;52.210;21.046;2023-07-16T02:17:48;21.80;99.90
11091;DHT22;5599;52.210;21.046;2023-07-16T02:20:17;21.80;99.90
11091;DHT22;5599;52.210;21.046;2023-07-16T02:22:46;21.80;99.90
11091;DHT22;5599;52.210;21.046;2023-07-16T02:25:15;21.80;99.90
11091;DHT22;5599;52.210;21.046;2023-07-16T02:27:47;21.80;99.90
11091;DHT22;5599;52.210;21.046;2023-07-16T02:30:18;21.80;99.90
11091;DHT22;5599;52.210;21.046;2023-07-16T02:32:47;21.80;1.00
11091;DHT22;5599;52.210;21.046;2023-07-16T02:35:17;21.80;99.90
11091;DHT22;5599;52.210;21.046;2023-07-16T02:37:48;21.70;1.00
11091;DHT22;5599;52.210;21.046;2023-07-16T02:40:19;21.60;1.00
11091;DHT22;5599;52.210;21.046;2023-07-16T02:42:48;21.60;1.00
11091;DHT22;5599;52.210;21.046;2023-07-16T02:45:20;21.60;99.90
11091;DHT22;5599;52.210;21.046;2023-07-16T02:47:49;21.50;99.90
11091;DHT22;5599;52.210;21.046;2023-07-16T02:50:18;21.50;99.90
11091;DHT22;5599;52.210;21.046;2023-07-16T02:52:47;21.60;99.90
11091;DHT22;5599;52.210;21.046;2023-07-16T02:55:17;21.60;80.60
11091;DHT22;5599;52.210;21.046;2023-07-16T02:57:46;21.60;1.00
11091;DHT22;5599;52.210;21.046;2023-07-16T03:00:15;21.50;99.90
11091;DHT22;5599;52.210;21.046;2023-07-16T03:02:46;21.40;1.00
11091;DHT22;5599;52.210;21.046;2023-07-16T03:05:17;21.50;99.90
11091;DHT22;5599;52.210;21.046;2023-07-16T03:07:46;21.50;99.90
11091;DHT22;5599;52.210;21.046;2023-07-16T03:10:17;21.60;43.00
11091;DHT22;5599;52.210;21.046;2023-07-16T03:12:46;21.60;1.00
11091;DHT22;5599;52.210;21.046;2023-07-16T03:15:15;21.60;41.70
11091;DHT22;5599;52.210;21.046;2023-07-16T03:17:46;21.50;99.90
11091;DHT22;5599;52.210;21.046;2023-07-16T03:20:15;21.50;1.00
11091;DHT22;5599;52.210;21.046;2023-07-16T03:22:44;21.60;99.90
11091;DHT22;5599;52.210;21.046;2023-07-16T03:25:14;21.70;99.90
11091;DHT22;5599;52.210;21.046;2023-07-16T03:27:43;21.70;51.80
11091;DHT22;5599;52.210;21.046;2023-07-16T03:30:12;21.80;1.00
11091;DHT22;5599;52.210;21.046;2023-07-16T03:32:42;21.70;99.90
11091;DHT22;5599;52.210;21.046;2023-07-16T03:35:22;21.70;99.90
11091;DHT22;5599;52.210;21.046;2023-07-16T03:37:53;21.70;99.90
11091;DHT22;5599;52.210;21.046;2023-07-16T03:40:25;21.70;99.90
11091;DHT22;5599;52.210;21.046;2023-07-16T03:42:54;21.80;99.90
11091;DHT22;5599;52.210;21.046;2023-07-16T03:45:24;22.10;25.60
11091;DHT22;5599;52.210;21.046;2023-07-16T03:47:53;22.50;42.10
11091;DHT22;5599;52.210;21.046;2023-07-16T03:50:24;22.90;1.00
11091;DHT22;5599;52.210;21.046;2023-07-16T03:52:55;23.30;99.90
11091;DHT22;5599;52.210;21.046;2023-07-16T03:55:24;23.50;85.00
11091;DHT22;5599;52.210;21.046;2023-07-16T03:57:55;23.90;99.90
11091;DHT22;5599;52.210;21.046;2023-07-16T04:00:24;24.30;99.90
11091;DHT22;5599;52.210;21.046;2023-07-16T04:02:53;24.60;1.00
11091;DHT22;5599;52.210;21.046;2023-07-16T04:05:24;24.90;1.00
11091;DHT22;5599;52.210;21.046;2023-07-16T04:07:53;25.30;99.90
11091;DHT22;5599;52.210;21.046;2023-07-16T04:10:23;25.50;63.40
11091;DHT22;5599;52.210;21.046;2023-07-16T04:12:52;25.80;1.00
11091;DHT22;5599;52.210;21.046;2023-07-16T04:15:21;26.20;1.00
11091;DHT22;5599;52.210;21.046;2023-07-16T04:17:50;26.50;1.00
11091;DHT22;5599;52.210;21.046;2023-07-16T04:20:20;26.40;1.00
11091;DHT22;5599;52.210;21.046;2023-07-16T04:22:50;26.60;1.00
11091;DHT22;5599;52.210;21.046;2023-07-16T04:25:20;26.80;1.00
11091;DHT22;5599;52.210;21.046;2023-07-16T04:27:49;27.00;1.00
11091;DHT22;5599;52.210;21.046;2023-07-16T04:30:19;27.20;99.90
11091;DHT22;5599;52.210;21.046;2023-07-16T04:32:48;27.40;99.90
11091;DHT22;5599;52.210;21.046;2023-07-16T04:35:17;27.70;99.90
11091;DHT22;5599;52.210;21.046;2023-07-16T04:37:47;27.80;99.90
11091;DHT22;5599;52.210;21.046;2023-07-16T04:40:17;28.00;99.90
11091;DHT22;5599;52.210;21.046;2023-07-16T04:42:46;28.10;99.90
11091;DHT22;5599;52.210;21.046;2023-07-16T04:45:16;28.10;99.90
11091;DHT22;5599;52.210;21.046;2023-07-16T04:47:45;28.60;99.90
11091;DHT22;5599;52.210;21.046;2023-07-16T04:50:14;29.10;81.50
11091;DHT22;5599;52.210;21.046;2023-07-16T04:52:43;29.50;97.90
11091;DHT22;5599;52.210;21.046;2023-07-16T04:55:13;29.80;34.80
11091;DHT22;5599;52.210;21.046;2023-07-16T04:57:44;30.00;1.00
11091;DHT22;5599;52.210;21.046;2023-07-16T05:00:14;30.30;1.00
11091;DHT22;5599;52.210;21.046;2023-07-16T05:02:43;30.50;1.00
11091;DHT22;5599;52.210;21.046;2023-07-16T05:05:12;30.90;1.00
11091;DHT22;5599;52.210;21.046;2023-07-16T05:07:41;31.20;1.00
11091;DHT22;5599;52.210;21.046;2023-07-16T05:10:11;31.10;5.70
11091;DHT22;5599;52.210;21.046;2023-07-16T05:12:40;31.10;8.30
11091;DHT22;5599;52.210;21.046;2023-07-16T05:15:11;31.50;99.90
11091;DHT22;5599;52.210;21.046;2023-07-16T05:17:40;31.70;95.20
11091;DHT22;5599;52.210;21.046;2023-07-16T05:20:10;32.10;81.30
11091;DHT22;5599;52.210;21.046;2023-07-16T05:22:39;32.40;1.00
11091;DHT22;5599;52.210;21.046;2023-07-16T05:25:09;32.40;39.10
11091;DHT22;5599;52.210;21.046;2023-07-16T05:27:38;32.40;63.40
11091;DHT22;5599;52.210;21.046;2023-07-16T05:30:08;32.50;27.80
11091;DHT22;5599;52.210;21.046;2023-07-16T05:32:38;32.20;67.50
11091;DHT22;5599;52.210;21.046;2023-07-16T05:35:08;31.90;99.90
11091;DHT22;5599;52.210;21.046;2023-07-16T05:37:37;32.00;99.90
11091;DHT22;5599;52.210;21.046;2023-07-16T05:40:07;32.10;14.30
11091;DHT22;5599;52.210;21.046;2023-07-16T05:42:37;32.10;36.60
11091;DHT22;5599;52.210;21.046;2023-07-16T05:45:07;32.20;1.00
11091;DHT22;5599;52.210;21.046;2023-07-16T05:47:37;32.30;42.90
11091;DHT22;5599;52.210;21.046;2023-07-16T05:50:08;32.50;1.00
11091;DHT22;5599;52.210;21.046;2023-07-16T05:52:37;32.60;94.00
11091;DHT22;5599;52.210;21.046;2023-07-16T05:55:07;32.60;14.10
11091;DHT22;5599;52.210;21.046;2023-07-16T05:57:36;32.60;32.80
11091;DHT22;5599;52.210;21.046;2023-07-16T06:00:07;33.00;99.90
11091;DHT22;5599;52.210;21.046;2023-07-16T06:02:43;33.30;40.50
11091;DHT22;5599;52.210;21.046;2023-07-16T06:05:12;33.40;44.80
11091;DHT22;5599;52.210;21.046;2023-07-16T06:07:41;34.00;99.90
11091;DHT22;5599;52.210;21.046;2023-07-16T06:10:11;34.60;99.90
11091;DHT22;5599;52.210;21.046;2023-07-16T06:12:40;35.00;99.90
11091;DHT22;5599;52.210;21.046;2023-07-16T06:15:10;35.30;98.30
11091;DHT22;5599;52.210;21.046;2023-07-16T06:17:39;34.90;15.90
11091;DHT22;5599;52.210;21.046;2023-07-16T06:20:10;35.40;1.00
11091;DHT22;5599;52.210;21.046;2023-07-16T06:22:39;35.60;24.30
11091;DHT22;5599;52.210;21.046;2023-07-16T06:25:09;35.80;69.20
11091;DHT22;5599;52.210;21.046;2023-07-16T06:27:38;36.20;99.90
11091;DHT22;5599;52.210;21.046;2023-07-16T06:30:08;36.50;85.80
11091;DHT22;5599;52.210;21.046;2023-07-16T06:32:37;36.50;99.90
11091;DHT22;5599;52.210;21.046;2023-07-16T06:35:07;36.40;99.90
11091;DHT22;5599;52.210;21.046;2023-07-16T06:37:38;37.00;9.10
11091;DHT22;5599;52.210;21.046;2023-07-16T06:40:08;37.40;99.90
11091;DHT22;5599;52.210;21.046;2023-07-16T06:42:37;37.30;1.00
11091;DHT22;5599;52.210;21.046;2023-07-16T06:45:07;36.90;1.00
11091;DHT22;5599;52.210;21.046;2023-07-16T06:47:36;36.50;1.00
11091;DHT22;5599;52.210;21.046;2023-07-16T06:50:06;36.60;1.00
11091;DHT22;5599;52.210;21.046;2023-07-16T06:52:35;36.80;35.90
11091;DHT22;5599;52.210;21.046;2023-07-16T06:55:07;37.30;1.00
11091;DHT22;5599;52.210;21.046;2023-07-16T06:57:36;37.70;1.00
11091;DHT22;5599;52.210;21.046;2023-07-16T07:00:06;38.10;1.00
11091;DHT22;5599;52.210;21.046;2023-07-16T07:02:38;38.50;1.00
11091;DHT22;5599;52.210;21.046;2023-07-16T07:05:08;38.80;1.00
11091;DHT22;5599;52.210;21.046;2023-07-16T07:07:37;39.20;1.00
11091;DHT22;5599;52.210;21.046;2023-07-16T07:10:08;39.30;1.00
11091;DHT22;5599;52.210;21.046;2023-07-16T07:12:38;39.40;1.00
11091;DHT22;5599;52.210;21.046;2023-07-16T07:15:09;39.30;1.00
11091;DHT22;5599;52.210;21.046;2023-07-16T07:17:39;39.40;1.00
11091;DHT22;5599;52.210;21.046;2023-07-16T07:20:11;39.50;1.00
11091;DHT22;5599;52.210;21.046;2023-07-16T07:22:41;39.80;1.00
11091;DHT22;5599;52.210;21.046;2023-07-16T07:25:12;39.90;1.00
11091;DHT22;5599;52.210;21.046;2023-07-16T07:27:41;40.30;1.00
11091;DHT22;5599;52.210;21.046;2023-07-16T07:30:11;40.60;1.00
11091;DHT22;5599;52.210;21.046;2023-07-16T07:32:40;41.10;1.00
11091;DHT22;5599;52.210;21.046;2023-07-16T07:35:10;41.30;1.00
11091;DHT22;5599;52.210;21.046;2023-07-16T07:37:39;41.50;1.00
11091;DHT22;5599;52.210;21.046;2023-07-16T07:40:11;41.50;1.00
11091;DHT22;5599;52.210;21.046;2023-07-16T07:42:40;41.70;1.00
11091;DHT22;5599;52.210;21.046;2023-07-16T07:45:10;41.60;1.00
11091;DHT22;5599;52.210;21.046;2023-07-16T07:47:39;41.50;1.00
11091;DHT22;5599;52.210;21.046;2023-07-16T07:50:09;41.60;1.00
11091;DHT22;5599;52.210;21.046;2023-07-16T07:52:38;41.80;1.00
11091;DHT22;5599;52.210;21.046;2023-07-16T07:55:08;41.70;1.00
11091;DHT22;5599;52.210;21.046;2023-07-16T07:57:39;41.80;1.00
11091;DHT22;5599;52.210;21.046;2023-07-16T08:00:09;41.80;1.00
11091;DHT22;5599;52.210;21.046;2023-07-16T08:02:41;41.90;1.00
11091;DHT22;5599;52.210;21.046;2023-07-16T08:05:11;41.90;1.00
11091;DHT22;5599;52.210;21.046;2023-07-16T08:07:43;41.50;1.00
11091;DHT22;5599;52.210;21.046;2023-07-16T08:10:12;41.80;1.00
11091;DHT22;5599;52.210;21.046;2023-07-16T08:12:43;42.10;1.00
11091;DHT22;5599;52.210;21.046;2023-07-16T08:15:12;42.30;51.30
11091;DHT22;5599;52.210;21.046;2023-07-16T08:17:43;42.30;4.40
11091;DHT22;5599;52.210;21.046;2023-07-16T08:20:13;42.20;1.30
11091;DHT22;5599;52.210;21.046;2023-07-16T08:22:42;42.30;1.00
11091;DHT22;5599;52.210;21.046;2023-07-16T08:25:11;42.40;38.30
11091;DHT22;5599;52.210;21.046;2023-07-16T08:27:40;42.40;1.00
11091;DHT22;5599;52.210;21.046;2023-07-16T08:30:11;42.70;1.00
11091;DHT22;5599;52.210;21.046;2023-07-16T08:32:40;43.00;1.00
11091;DHT22;5599;52.210;21.046;2023-07-16T08:35:10;43.20;1.00
11091;DHT22;5599;52.210;21.046;2023-07-16T08:37:44;43.30;1.00
11091;DHT22;5599;52.210;21.046;2023-07-16T08:40:13;43.20;3.80
11091;DHT22;5599;52.210;21.046;2023-07-16T08:42:44;43.20;1.00
11091;DHT22;5599;52.210;21.046;2023-07-16T08:45:16;43.30;1.00
11091;DHT22;5599;52.210;21.046;2023-07-16T08:47:50;43.20;1.00
11091;DHT22;5599;52.210;21.046;2023-07-16T08:50:20;43.00;99.90
11091;DHT22;5599;52.210;21.046;2023-07-16T08:52:50;42.80;99.90
11091;DHT22;5599;52.210;21.046;2023-07-16T08:55:20;42.40;99.90
11091;DHT22;5599;52.210;21.046;2023-07-16T08:57:50;42.40;99.90
11091;DHT22;5599;52.210;21.046;2023-07-16T09:00:21;42.40;99.90
11091;DHT22;5599;52.210;21.046;2023-07-16T09:02:53;42.30;99.90
11091;DHT22;5599;52.210;21.046;2023-07-16T09:05:23;42.10;99.90
11091;DHT22;5599;52.210;21.046;2023-07-16T09:08:07;42.00;99.90
11091;DHT22;5599;52.210;21.046;2023-07-16T09:10:36;41.80;99.90
11091;DHT22;5599;52.210;21.046;2023-07-16T09:13:05;41.80;99.90
11091;DHT22;5599;52.210;21.046;2023-07-16T09:15:36;41.90;99.90
11091;DHT22;5599;52.210;21.046;2023-07-16T09:18:07;41.90;99.90
11091;DHT22;5599;52.210;21.046;2023-07-16T09:20:39;41.70;99.90
11091;DHT22;5599;52.210;21.046;2023-07-16T09:23:09;41.40;99.90
11091;DHT22;5599;52.210;21.046;2023-07-16T09:25:38;41.20;99.90
11091;DHT22;5599;52.210;21.046;2023-07-16T09:28:08;41.00;99.90
11091;DHT22;5599;52.210;21.046;2023-07-16T09:30:39;40.80;99.90
11091;DHT22;5599;52.210;21.046;2023-07-16T09:33:12;40.70;99.90
11091;DHT22;5599;52.210;21.046;2023-07-16T09:35:42;40.40;94.60
11091;DHT22;5599;52.210;21.046;2023-07-16T09:38:11;40.10;11.40
11091;DHT22;5599;52.210;21.046;2023-07-16T09:40:41;40.00;1.00
11091;DHT22;5599;52.210;21.046;2023-07-16T09:43:11;39.80;1.00
11091;DHT22;5599;52.210;21.046;2023-07-16T09:45:42;40.10;55.50
11091;DHT22;5599;52.210;21.046;2023-07-16T09:48:13;40.20;1.00
11091;DHT22;5599;52.210;21.046;2023-07-16T09:50:48;40.20;98.80
11091;DHT22;5599;52.210;21.046;2023-07-16T09:53:19;40.00;1.00
11091;DHT22;5599;52.210;21.046;2023-07-16T09:55:52;40.00;19.50
11091;DHT22;5599;52.210;21.046;2023-07-16T09:58:23;39.90;1.00
11091;DHT22;5599;52.210;21.046;2023-07-16T10:00:54;39.80;1.00
11091;DHT22;5599;52.210;21.046;2023-07-16T10:03:25;39.50;1.00
11091;DHT22;5599;52.210;21.046;2023-07-16T10:06:05;39.40;91.30
11091;DHT22;5599;52.210;21.046;2023-07-16T10:08:35;39.50;1.00
11091;DHT22;5599;52.210;21.046;2023-07-16T10:11:04;39.60;1.00
11091;DHT22;5599;52.210;21.046;2023-07-16T10:13:48;39.60;1.00
11091;DHT22;5599;52.210;21.046;2023-07-16T10:16:23;39.50;1.00
11091;DHT22;5599;52.210;21.046;2023-07-16T10:18:58;39.30;1.00
11091;DHT22;5599;52.210;21.046;2023-07-16T10:21:28;39.20;1.00
11091;DHT22;5599;52.210;21.046;2023-07-16T10:24:16;39.00;1.00
11091;DHT22;5599;52.210;21.046;2023-07-16T10:26:45;39.10;1.00
11091;DHT22;5599;52.210;21.046;2023-07-16T10:29:15;39.10;1.00
11091;DHT22;5599;52.210;21.046;2023-07-16T10:31:46;38.90;1.00
11091;DHT22;5599;52.210;21.046;2023-07-16T10:34:16;38.60;1.00
11091;DHT22;5599;52.210;21.046;2023-07-16T10:36:45;38.60;1.00
11091;DHT22;5599;52.210;21.046;2023-07-16T10:39:15;38.10;1.00
11091;DHT22;5599;52.210;21.046;2023-07-16T10:41:45;37.80;1.00
11091;DHT22;5599;52.210;21.046;2023-07-16T10:44:14;37.80;1.00
11091;DHT22;5599;52.210;21.046;2023-07-16T10:46:45;37.70;1.00
11091;DHT22;5599;52.210;21.046;2023-07-16T10:49:14;37.60;1.00
11091;DHT22;5599;52.210;21.046;2023-07-16T10:51:43;37.30;17.90
11091;DHT22;5599;52.210;21.046;2023-07-16T10:54:12;37.10;45.00
11091;DHT22;5599;52.210;21.046;2023-07-16T10:56:42;37.10;1.00
11091;DHT22;5599;52.210;21.046;2023-07-16T10:59:11;37.10;1.00
11091;DHT22;5599;52.210;21.046;2023-07-16T11:01:40;37.10;43.20
11091;DHT22;5599;52.210;21.046;2023-07-16T11:04:12;37.20;1.00
11091;DHT22;5599;52.210;21.046;2023-07-16T11:06:41;37.20;1.00
11091;DHT22;5599;52.210;21.046;2023-07-16T11:09:11;37.20;1.00
11091;DHT22;5599;52.210;21.046;2023-07-16T11:11:40;37.40;1.00
11091;DHT22;5599;52.210;21.046;2023-07-16T11:14:09;37.80;1.00
11091;DHT22;5599;52.210;21.046;2023-07-16T11:16:39;38.10;1.00
11091;DHT22;5599;52.210;21.046;2023-07-16T11:19:08;38.40;1.00
11091;DHT22;5599;52.210;21.046;2023-07-16T11:21:39;38.40;1.00
11091;DHT22;5599;52.210;21.046;2023-07-16T11:24:09;38.50;1.00
11091;DHT22;5599;52.210;21.046;2023-07-16T11:26:38;38.40;1.00
11091;DHT22;5599;52.210;21.046;2023-07-16T11:29:14;38.40;1.00
11091;DHT22;5599;52.210;21.046;2023-07-16T11:31:44;38.30;1.00
11091;DHT22;5599;52.210;21.046;2023-07-16T11:34:13;38.40;1.00
11091;DHT22;5599;52.210;21.046;2023-07-16T11:36:44;38.50;1.00
11091;DHT22;5599;52.210;21.046;2023-07-16T11:39:17;38.20;1.00
11091;DHT22;5599;52.210;21.046;2023-07-16T11:41:54;38.00;1.00
11091;DHT22;5599;52.210;21.046;2023-07-16T11:44:26;37.90;1.00
11091;DHT22;5599;52.210;21.046;2023-07-16T11:47:00;38.00;1.00
11091;DHT22;5599;52.210;21.046;2023-07-16T11:49:30;38.10;1.00
11091;DHT22;5599;52.210;21.046;2023-07-16T11:52:00;38.00;1.00
11091;DHT22;5599;52.210;21.046;2023-07-16T11:54:29;37.90;1.00
11091;DHT22;5599;52.210;21.046;2023-07-16T11:56:58;37.60;1.00
11091;DHT22;5599;52.210;21.046;2023-07-16T11:59:27;37.70;1.00
11091;DHT22;5599;52.210;21.046;2023-07-16T12:01:57;37.70;20.40
11091;DHT22;5599;52.210;21.046;2023-07-16T12:04:27;37.60;17.00
11091;DHT22;5599;52.210;21.046;2023-07-16T12:06:56;37.50;1.00
11091;DHT22;5599;52.210;21.046;2023-07-16T12:09:27;37.50;1.00
11091;DHT22;5599;52.210;21.046;2023-07-16T12:11:56;37.70;13.50
11091;DHT22;5599;52.210;21.046;2023-07-16T12:14:25;37.60;1.00
11091;DHT22;5599;52.210;21.046;2023-07-16T12:16:55;37.50;1.00
11091;DHT22;5599;52.210;21.046;2023-07-16T12:19:25;37.50;70.50
11091;DHT22;5599;52.210;21.046;2023-07-16T12:21:55;37.70;1.00
11091;DHT22;5599;52.210;21.046;2023-07-16T12:24:27;37.80;1.00
11091;DHT22;5599;52.210;21.046;2023-07-16T12:26:56;37.60;1.00
11091;DHT22;5599;52.210;21.046;2023-07-16T12:29:25;37.40;61.30
11091;DHT22;5599;52.210;21.046;2023-07-16T12:31:55;37.30;1.00
11091;DHT22;5599;52.210;21.046;2023-07-16T12:34:25;37.40;1.00
11091;DHT22;5599;52.210;21.046;2023-07-16T12:36:54;37.50;1.00
11091;DHT22;5599;52.210;21.046;2023-07-16T12:39:23;37.60;1.00
11091;DHT22;5599;52.210;21.046;2023-07-16T12:41:54;37.80;1.00
11091;DHT22;5599;52.210;21.046;2023-07-16T12:44:23;37.80;1.00
11091;DHT22;5599;52.210;21.046;2023-07-16T12:46:52;37.80;1.00
11091;DHT22;5599;52.210;21.046;2023-07-16T12:49:21;37.70;1.00
11091;DHT22;5599;52.210;21.046;2023-07-16T12:51:50;37.80;1.00
11091;DHT22;5599;52.210;21.046;2023-07-16T12:54:19;37.70;1.00
11091;DHT22;5599;52.210;21.046;2023-07-16T12:56:49;37.80;20.20
11091;DHT22;5599;52.210;21.046;2023-07-16T12:59:19;37.70;22.00
11091;DHT22;5599;52.210;21.046;2023-07-16T13:01:49;37.70;43.60
11091;DHT22;5599;52.210;21.046;2023-07-16T13:04:18;37.70;35.50
11091;DHT22;5599;52.210;21.046;2023-07-16T13:06:48;37.30;99.90
11091;DHT22;5599;52.210;21.046;2023-07-16T13:09:17;37.30;1.00
11091;DHT22;5599;52.210;21.046;2023-07-16T13:11:47;37.40;4.40
11091;DHT22;5599;52.210;21.046;2023-07-16T13:14:18;37.40;5.90
11091;DHT22;5599;52.210;21.046;2023-07-16T13:16:48;37.40;43.60
11091;DHT22;5599;52.210;21.046;2023-07-16T13:19:18;37.30;23.60
11091;DHT22;5599;52.210;21.046;2023-07-16T13:21:48;37.20;1.00
11091;DHT22;5599;52.210;21.046;2023-07-16T13:24:18;37.20;16.10
11091;DHT22;5599;52.210;21.046;2023-07-16T13:26:47;37.00;1.00
11091;DHT22;5599;52.210;21.046;2023-07-16T13:29:19;36.70;1.00
11091;DHT22;5599;52.210;21.046;2023-07-16T13:31:49;36.40;46.40
11091;DHT22;5599;52.210;21.046;2023-07-16T13:34:19;36.40;6.20
11091;DHT22;5599;52.210;21.046;2023-07-16T13:36:49;36.40;60.90
11091;DHT22;5599;52.210;21.046;2023-07-16T13:39:20;36.50;2.30
11091;DHT22;5599;52.210;21.046;2023-07-16T13:41:51;36.50;44.80
11091;DHT22;5599;52.210;21.046;2023-07-16T13:44:29;36.50;20.70
11091;DHT22;5599;52.210;21.046;2023-07-16T13:46:59;36.50;27.80
11091;DHT22;5599;52.210;21.046;2023-07-16T13:49:29;36.50;1.00
11091;DHT22;5599;52.210;21.046;2023-07-16T13:51:59;36.60;1.00
11091;DHT22;5599;52.210;21.046;2023-07-16T13:54:29;36.60;1.00
11091;DHT22;5599;52.210;21.046;2023-07-16T13:56:59;36.60;1.00
11091;DHT22;5599;52.210;21.046;2023-07-16T13:59:32;36.40;1.00
11091;DHT22;5599;52.210;21.046;2023-07-16T14:02:03;36.50;1.00
11091;DHT22;5599;52.210;21.046;2023-07-16T14:04:32;36.50;23.00
11091;DHT22;5599;52.210;21.046;2023-07-16T14:07:04;36.40;1.00
11091;DHT22;5599;52.210;21.046;2023-07-16T14:09:34;36.60;1.00
11091;DHT22;5599;52.210;21.046;2023-07-16T14:12:04;36.70;40.20
11091;DHT22;5599;52.210;21.046;2023-07-16T14:14:37;36.60;1.00
11091;DHT22;5599;52.210;21.046;2023-07-16T14:17:07;36.40;1.00
11091;DHT22;5599;52.210;21.046;2023-07-16T14:19:37;36.30;1.00
11091;DHT22;5599;52.210;21.046;2023-07-16T14:22:06;36.20;1.00
11091;DHT22;5599;52.210;21.046;2023-07-16T14:24:40;36.10;1.00
11091;DHT22;5599;52.210;21.046;2023-07-16T14:27:10;35.90;68.40
11091;DHT22;5599;52.210;21.046;2023-07-16T14:29:44;35.80;99.90
11091;DHT22;5599;52.210;21.046;2023-07-16T14:32:31;35.80;99.90
11091;DHT22;5599;52.210;21.046;2023-07-16T14:35:03;35.70;99.90
11091;DHT22;5599;52.210;21.046;2023-07-16T14:37:49;35.60;99.90
11091;DHT22;5599;52.210;21.046;2023-07-16T14:40:19;35.50;66.50
11091;DHT22;5599;52.210;21.046;2023-07-16T14:42:48;35.40;57.10
11091;DHT22;5599;52.210;21.046;2023-07-16T14:45:19;35.40;99.90
11091;DHT22;5599;52.210;21.046;2023-07-16T14:47:49;35.30;99.90
11091;DHT22;5599;52.210;21.046;2023-07-16T14:50:19;35.10;99.90
11091;DHT22;5599;52.210;21.046;2023-07-16T14:52:49;35.00;99.90
11091;DHT22;5599;52.210;21.046;2023-07-16T14:55:19;35.00;99.90
11091;DHT22;5599;52.210;21.046;2023-07-16T14:57:51;35.00;1.00
11091;DHT22;5599;52.210;21.046;2023-07-16T15:00:24;35.10;57.40
11091;DHT22;5599;52.210;21.046;2023-07-16T15:02:54;35.00;1.00
11091;DHT22;5599;52.210;21.046;2023-07-16T15:05:24;34.90;24.90
11091;DHT22;5599;52.210;21.046;2023-07-16T15:07:54;34.90;99.90
11091;DHT22;5599;52.210;21.046;2023-07-16T15:10:24;34.90;88.90
11091;DHT22;5599;52.210;21.046;2023-07-16T15:12:55;34.80;48.60
11091;DHT22;5599;52.210;21.046;2023-07-16T15:15:27;34.90;13.80
11091;DHT22;5599;52.210;21.046;2023-07-16T15:17:57;34.80;1.00
11091;DHT22;5599;52.210;21.046;2023-07-16T15:20:28;34.70;99.90
11091;DHT22;5599;52.210;21.046;2023-07-16T15:22:58;34.60;91.20
11091;DHT22;5599;52.210;21.046;2023-07-16T15:25:28;34.50;30.00
11091;DHT22;5599;52.210;21.046;2023-07-16T15:27:57;34.30;1.00
11091;DHT22;5599;52.210;21.046;2023-07-16T15:30:30;34.20;24.10
11091;DHT22;5599;52.210;21.046;2023-07-16T15:33:00;34.10;41.70
11091;DHT22;5599;52.210;21.046;2023-07-16T15:35:29;34.00;39.50
11091;DHT22;5599;52.210;21.046;2023-07-16T15:38:00;34.00;33.90
11091;DHT22;5599;52.210;21.046;2023-07-16T15:40:33;34.00;1.00
11091;DHT22;5599;52.210;21.046;2023-07-16T15:43:04;34.00;1.00
11091;DHT22;5599;52.210;21.046;2023-07-16T15:45:36;33.80;62.80
11091;DHT22;5599;52.210;21.046;2023-07-16T15:48:07;33.80;1.00
11091;DHT22;5599;52.210;21.046;2023-07-16T15:50:37;33.80;1.00
11091;DHT22;5599;52.210;21.046;2023-07-16T15:53:07;33.70;1.00
11091;DHT22;5599;52.210;21.046;2023-07-16T15:55:37;33.70;1.00
11091;DHT22;5599;52.210;21.046;2023-07-16T15:58:07;33.50;1.00
11091;DHT22;5599;52.210;21.046;2023-07-16T16:00:38;33.20;1.00